Time;durP1;ratioP1;P1;durP2;ratioP2;P2;SDS_P1;SDS_P2;PMS_P1;PMS_P2;Temp;Humidity;BMP_temperature;BMP_pressure;BME280_temperature;BME280_humidity;BME280_pressure;Samples;Min_cycle;Max_cycle;Signal;HPM_P1;HPM_P2
2021/12/06 00:00:13;;;;;;;59.63;20.85;;;;;;;8.61;100.00;99848.16;5053554;28;20029;-73
2021/12/06 00:02:39;;;;;;;78.57;23.58;;;;;;;8.58;100.00;99831.81;5053521;28;20025;-74
2021/12/06 00:05:06;;;;;;;60.13;21.48;;;;;;;8.63;100.00;99849.09;5053635;28;20128;-73
2021/12/06 00:07:32;;;;;;;73.80;24.45;;;;;;;8.61;100.00;99853.28;5054162;28;20048;-73
2021/12/06 00:09:58;;;;;;;85.53;24.92;;;;;;;8.46;100.00;99851.94;5053867;28;20512;-73
2021/12/06 00:12:23;;;;;;;67.93;24.42;;;;;;;8.17;100.00;99840.56;5054016;28;20040;-73
2021/12/06 00:14:49;;;;;;;70.43;23.85;;;;;;;8.07;100.00;99870.19;5053642;28;20082;-73
2021/12/06 00:17:16;;;;;;;78.20;23.88;;;;;;;7.85;100.00;99889.97;5053683;28;20052;-73
2021/12/06 00:19:42;;;;;;;80.05;24.10;;;;;;;7.78;100.00;99878.56;5053272;28;20029;-73
2021/12/06 00:22:13;;;;;;;73.53;25.17;;;;;;;7.75;100.00;99878.44;5053786;28;20029;-78
2021/12/06 00:24:39;;;;;;;93.18;25.10;;;;;;;7.78;100.00;99883.69;5054068;28;20056;-72
2021/12/06 00:27:06;;;;;;;114.88;27.88;;;;;;;7.70;100.00;99874.84;5053629;28;20106;-71
2021/12/06 00:29:31;;;;;;;147.23;30.45;;;;;;;7.68;100.00;99884.16;5053526;28;20445;-71
2021/12/06 00:31:57;;;;;;;104.55;28.30;;;;;;;7.69;100.00;99879.88;5053389;28;20025;-71
2021/12/06 00:34:25;;;;;;;111.85;29.70;;;;;;;7.70;100.00;99885.09;5051095;28;20514;-71
2021/12/06 00:37:05;;;;;;;102.03;27.85;;;;;;;7.68;100.00;99883.28;5053230;28;20041;-71
2021/12/06 00:39:31;;;;;;;;;;;;;;;7.64;100.00;99890.00;5054085;28;20029;-71
2021/12/06 00:41:56;;;;;;;104.45;26.77;;;;;;;7.60;100.00;99881.28;5053185;28;19915;-71
2021/12/06 00:44:22;;;;;;;124.35;30.25;;;;;;;7.69;100.00;99888.50;5053392;28;20033;-71
2021/12/06 00:46:47;;;;;;;128.75;30.65;;;;;;;7.74;100.00;99884.41;5052949;28;20475;-73
2021/12/06 00:49:13;;;;;;;120.82;30.17;;;;;;;7.70;100.00;99876.50;5052290;28;20387;-71
2021/12/06 00:51:40;;;;;;;122.57;28.83;;;;;;;7.72;100.00;99886.03;5053247;28;20033;-72
2021/12/06 00:54:07;;;;;;;120.70;29.98;;;;;;;7.71;100.00;99883.41;5042999;28;20490;-72
2021/12/06 00:56:33;;;;;;;131.73;32.88;;;;;;;7.74;100.00;99876.69;5052995;28;20467;-71
2021/12/06 00:58:58;;;;;;;150.63;31.73;;;;;;;7.87;100.00;99872.03;5052894;28;20033;-71
2021/12/06 01:01:24;;;;;;;123.63;31.73;;;;;;;7.89;100.00;99867.84;5052713;28;20092;-72
2021/12/06 01:03:49;;;;;;;123.55;29.92;;;;;;;7.88;100.00;99876.34;5046791;28;20451;-70
2021/12/06 01:06:15;;;;;;;124.38;29.88;;;;;;;7.86;100.00;99867.69;5052739;28;20493;-72
2021/12/06 01:08:41;;;;;;;128.95;26.30;;;;;;;7.63;100.00;99852.28;5052522;28;20475;-71
2021/12/06 01:11:08;;;;;;;115.32;24.58;;;;;;;7.61;100.00;99859.94;5052559;28;20404;-69
2021/12/06 01:13:34;;;;;;;123.68;24.08;;;;;;;7.49;100.00;99851.75;5052708;28;20025;-70
2021/12/06 01:16:00;;;;;;;126.22;24.73;;;;;;;7.32;100.00;99838.22;5052655;28;20031;-70
2021/12/06 01:18:26;;;;;;;109.82;24.25;;;;;;;7.29;100.00;99838.13;5052288;28;20028;-70
2021/12/06 01:21:01;;;;;;;101.97;26.45;;;;;;;7.07;100.00;99800.44;5052782;28;20028;-70
2021/12/06 01:23:32;;;;;;;108.43;28.05;;;;;;;7.16;100.00;99818.75;5052724;28;20068;-70
2021/12/06 01:31:35;;;;;;;113.20;28.63;;;;;;;7.19;100.00;99813.78;5010245;28;20042;-70
2021/12/06 01:39:36;;;;;;;129.02;30.38;;;;;;;7.42;100.00;99806.09;4971610;28;20049;-72
2021/12/06 01:42:05;;;;;;;107.95;29.83;;;;;;;7.54;100.00;99801.44;4971265;28;20126;-72
2021/12/06 01:44:36;;;;;;;91.38;27.52;;;;;;;7.69;100.00;99795.09;4971166;28;20051;-71
2021/12/06 01:47:17;;;;;;;97.47;27.90;;;;;;;7.41;100.00;99732.44;4971225;28;20501;-73
2021/12/06 01:49:49;;;;;;;97.35;27.35;;;;;;;7.88;100.00;99788.97;4971295;28;20136;-71
2021/12/06 01:52:22;;;;;;;82.93;26.38;;;;;;;7.98;100.00;99795.34;4970846;28;20042;-71
2021/12/06 01:54:47;;;;;;;86.00;25.02;;;;;;;7.95;100.00;99780.69;4971053;28;20038;-72
2021/12/06 01:57:13;;;;;;;90.18;24.20;;;;;;;7.90;100.00;99772.78;4971042;28;20111;-69
2021/12/06 01:59:39;;;;;;;84.03;25.83;;;;;;;7.93;100.00;99779.72;4970693;28;20105;-71
2021/12/06 02:02:06;;;;;;;98.50;24.67;;;;;;;8.13;100.00;99793.31;4970836;28;20031;-71
2021/12/06 02:04:37;;;;;;;107.28;22.52;;;;;;;8.06;100.00;99801.59;4970926;28;20030;-73
2021/12/06 02:07:06;;;;;;;104.78;25.88;;;;;;;7.89;100.00;99799.31;4971037;28;20543;-72
2021/12/06 02:09:32;;;;;;;160.30;27.48;;;;;;;7.85;100.00;99802.59;4971222;28;20035;-71
2021/12/06 02:12:00;;;;;;;110.18;26.02;;;;;;;7.74;100.00;99761.06;4970752;28;20118;-72
2021/12/06 02:19:39;;;;;;;96.15;26.77;;;;;;;7.87;100.00;99775.22;5051615;28;20501;-71
2021/12/06 02:22:06;;;;;;;110.18;29.15;;;;;;;7.84;100.00;99766.53;5052028;28;20040;-71
2021/12/06 02:24:32;;;;;;;95.68;25.05;;;;;;;7.77;100.00;99783.44;5015852;28;20045;-69
2021/12/06 02:26:58;;;;;;;127.43;23.08;;;;;;;7.72;100.00;99780.69;5051347;28;20032;-70
2021/12/06 02:29:24;;;;;;;81.00;22.00;;;;;;;7.66;100.00;99774.44;5051748;28;20033;-73
2021/12/06 02:31:50;;;;;;;108.35;21.98;;;;;;;7.57;100.00;99765.56;5033427;28;20033;-72
2021/12/06 02:34:15;;;;;;;142.82;22.73;;;;;;;7.66;100.00;99775.31;5050434;28;20029;-71
2021/12/06 02:36:42;;;;;;;123.75;20.80;;;;;;;7.72;100.00;99775.53;5051676;28;20052;-69
2021/12/06 02:39:09;;;;;;;92.63;18.08;;;;;;;7.76;100.00;99768.81;5051336;28;20025;-70
2021/12/06 02:41:36;;;;;;;68.10;17.67;;;;;;;7.73;100.00;99756.75;5051051;28;20529;-70
2021/12/06 02:44:01;;;;;;;75.80;17.65;;;;;;;7.59;100.00;99739.97;5051513;28;20033;-70
2021/12/06 02:46:27;;;;;;;54.80;16.55;;;;;;;7.81;100.00;99769.88;5051227;28;20039;-70
2021/12/06 02:48:53;;;;;;;73.05;16.75;;;;;;;7.78;100.00;99767.19;5051237;28;20033;-70
2021/12/06 02:51:19;;;;;;;37.65;17.30;;;;;;;7.84;100.00;99763.97;5051347;28;20043;-69
2021/12/06 02:53:45;;;;;;;36.63;16.52;;;;;;;7.80;100.00;99755.28;5051333;28;20083;-69
2021/12/06 02:59:08;;;;;;;37.72;14.95;;;;;;;7.54;100.00;99750.06;4950927;29;20543;-69
2021/12/06 03:01:43;;;;;;;40.67;13.90;;;;;;;7.37;100.00;99743.41;4951034;29;20482;-69
2021/12/06 03:04:09;;;;;;;154.50;20.63;;;;;;;7.16;100.00;99757.16;4934741;29;20112;-69
2021/12/06 03:06:36;;;;;;;185.80;20.33;;;;;;;7.08;100.00;99756.00;4951007;29;20039;-69
2021/12/06 03:09:09;;;;;;;128.68;18.83;;;;;;;7.07;100.00;99759.38;4950966;29;20120;-70
2021/12/06 03:11:43;;;;;;;102.47;19.27;;;;;;;7.07;100.00;99757.66;4950939;29;20027;-69
2021/12/06 03:14:13;;;;;;;75.78;17.92;;;;;;;7.03;100.00;99757.47;4950834;29;20047;-69
2021/12/06 03:16:39;;;;;;;139.57;20.40;;;;;;;6.85;100.00;99755.94;4950600;29;20031;-73
2021/12/06 03:19:06;;;;;;;80.10;18.70;;;;;;;6.68;100.00;99752.69;4950849;29;20035;-74
2021/12/06 03:21:32;;;;;;;136.82;22.38;;;;;;;6.79;100.00;99758.25;4950817;29;20040;-70
2021/12/06 03:23:58;;;;;;;150.02;24.55;;;;;;;6.79;100.00;99764.28;4950907;29;20047;-74
2021/12/06 03:26:25;;;;;;;79.30;20.60;;;;;;;6.86;100.00;99754.25;4951002;29;20481;-72
2021/12/06 03:28:51;;;;;;;63.47;22.13;;;;;;;6.87;100.00;99766.28;4950766;29;20066;-73
2021/12/06 03:31:18;;;;;;;85.95;21.15;;;;;;;6.92;100.00;99770.78;4963438;28;20107;-73
2021/12/06 03:33:48;;;;;;;86.38;22.17;;;;;;;6.83;100.00;99767.84;4970164;28;20599;-73
2021/12/06 03:36:16;;;;;;;123.80;22.65;;;;;;;6.91;100.00;99756.19;5024188;28;20415;-72
2021/12/06 03:38:42;;;;;;;74.30;21.38;;;;;;;7.03;100.00;99749.78;5054553;28;20593;-74
2021/12/06 03:41:10;;;;;;;101.55;20.40;;;;;;;7.05;100.00;99755.88;5054676;28;20155;-74
2021/12/06 03:43:37;;;;;;;67.75;19.40;;;;;;;7.15;100.00;99750.25;5054642;28;20029;-72
2021/12/06 03:46:03;;;;;;;57.13;19.55;;;;;;;7.12;100.00;99750.16;5054159;28;20033;-73
2021/12/06 03:48:29;;;;;;;85.00;19.88;;;;;;;7.16;100.00;99752.03;5054343;28;20036;-72
2021/12/06 03:50:55;;;;;;;56.75;20.10;;;;;;;7.28;100.00;99749.94;5054468;28;20395;-71
2021/12/06 03:53:20;;;;;;;67.55;20.45;;;;;;;6.99;100.00;99676.97;5054278;28;20032;-70
2021/12/06 03:55:46;;;;;;;66.22;20.98;;;;;;;7.33;100.00;99736.38;5054322;28;20020;-69
2021/12/06 03:58:11;;;;;;;56.88;20.08;;;;;;;7.37;100.00;99749.41;5053995;28;20479;-68
2021/12/06 04:00:37;;;;;;;44.47;19.30;;;;;;;7.42;100.00;99752.16;5054113;28;20029;-68
2021/12/06 04:03:03;;;;;;;58.78;20.38;;;;;;;7.41;100.00;99747.84;5054240;28;20033;-69
2021/12/06 04:05:29;;;;;;;48.13;21.38;;;;;;;7.52;100.00;99761.97;5053551;28;20048;-70
2021/12/06 04:07:55;;;;;;;34.05;16.85;;;;;;;7.55;100.00;99753.47;5054179;28;20044;-70
2021/12/06 04:10:24;;;;;;;38.00;16.25;;;;;;;7.48;100.00;99760.09;5053839;28;20025;-69
2021/12/06 04:12:50;;;;;;;31.70;16.13;;;;;;;7.51;100.00;99759.34;5053705;28;20117;-69
2021/12/06 04:15:16;;;;;;;30.00;15.25;;;;;;;7.10;100.00;99693.63;5053555;28;20103;-70
2021/12/06 04:17:42;;;;;;;30.88;14.57;;;;;;;7.37;100.00;99728.00;5053584;28;20035;-69
2021/12/06 04:20:10;;;;;;;25.98;14.32;;;;;;;7.53;100.00;99758.56;5053949;28;20079;-69
2021/12/06 04:22:37;;;;;;;24.70;13.15;;;;;;;7.63;100.00;99746.94;5053557;28;20025;-69
2021/12/06 04:25:04;;;;;;;22.00;13.55;;;;;;;7.28;100.00;99700.28;5053483;28;20033;-70
2021/12/06 04:27:30;;;;;;;22.75;13.75;;;;;;;7.56;100.00;99747.53;5053420;28;20498;-69
2021/12/06 04:29:56;;;;;;;25.10;14.38;;;;;;;7.45;100.00;99744.56;5053118;28;20067;-69
2021/12/06 04:32:23;;;;;;;27.13;16.55;;;;;;;7.42;100.00;99754.72;5053861;28;20108;-70
2021/12/06 04:34:50;;;;;;;26.52;16.20;;;;;;;7.43;100.00;99753.91;5050325;28;20084;-70
2021/12/06 04:37:16;;;;;;;25.33;16.42;;;;;;;7.57;100.00;99762.13;5052195;28;20045;-69
2021/12/06 04:39:42;;;;;;;27.10;16.63;;;;;;;7.69;100.00;99772.88;5053272;28;20110;-71
2021/12/06 04:42:09;;;;;;;25.08;16.33;;;;;;;7.60;100.00;99744.25;5053390;28;20029;-72
2021/12/06 04:44:34;;;;;;;24.02;15.27;;;;;;;7.70;100.00;99748.94;5050564;28;20091;-71
2021/12/06 04:47:01;;;;;;;25.60;14.25;;;;;;;7.50;100.00;99737.94;5052434;28;20403;-70
2021/12/06 04:49:28;;;;;;;31.35;16.48;;;;;;;7.60;100.00;99742.59;5053361;28;20032;-70
2021/12/06 04:51:56;;;;;;;36.10;15.50;;;;;;;7.75;100.00;99738.81;5047873;28;20115;-68
2021/12/06 04:54:27;;;;;;;27.17;15.85;;;;;;;7.84;100.00;99744.28;5043604;28;20025;-68
2021/12/06 04:57:02;;;;;;;24.65;13.95;;;;;;;7.88;100.00;99741.00;5037795;28;20021;-69
2021/12/06 04:59:36;;;;;;;32.33;14.82;;;;;;;7.90;100.00;99734.25;5033194;28;20056;-69
2021/12/06 05:02:09;;;;;;;28.33;15.77;;;;;;;7.96;100.00;99727.56;4983094;28;20052;-69
2021/12/06 05:04:38;;;;;;;25.73;15.07;;;;;;;7.94;100.00;99738.66;5032790;28;20026;-69
2021/12/06 05:07:15;;;;;;;24.85;14.95;;;;;;;8.00;100.00;99747.41;5032849;28;20030;-69
2021/12/06 05:09:43;;;;;;;23.73;14.23;;;;;;;8.03;100.00;99744.97;5032840;28;20116;-69
2021/12/06 05:12:12;;;;;;;19.67;12.43;;;;;;;7.90;100.00;99733.34;5032758;28;20030;-69
2021/12/06 05:14:38;;;;;;;21.10;13.40;;;;;;;7.88;100.00;99720.44;5033040;28;20018;-69
2021/12/06 05:17:04;;;;;;;21.00;14.45;;;;;;;7.98;100.00;99731.94;5032842;28;20404;-68
2021/12/06 05:19:29;;;;;;;18.83;12.98;;;;;;;8.07;100.00;99747.69;5017237;28;20027;-69
2021/12/06 05:21:55;;;;;;;21.38;13.98;;;;;;;7.99;100.00;99746.53;5041719;28;20021;-68
2021/12/06 05:24:20;;;;;;;27.92;16.80;;;;;;;7.99;100.00;99756.81;5049297;28;20399;-69
2021/12/06 05:26:47;;;;;;;26.85;16.25;;;;;;;7.90;100.00;99761.63;5052616;28;20032;-69
2021/12/06 05:29:26;;;;;;;24.23;15.55;;;;;;;7.92;100.00;99763.44;5050125;28;20044;-69
2021/12/06 05:31:57;;;;;;;27.52;16.65;;;;;;;7.93;100.00;99760.03;5042885;28;20040;-70
2021/12/06 05:34:33;;;;;;;25.48;17.48;;;;;;;7.93;100.00;99760.03;5049625;28;20399;-69
2021/12/06 05:36:59;;;;;;;28.08;17.13;;;;;;;7.70;100.00;99719.78;5048177;28;20049;-69
2021/12/06 05:39:30;;;;;;;27.83;17.13;;;;;;;7.88;100.00;99760.72;5046199;28;20033;-68
2021/12/06 05:42:00;;;;;;;32.75;19.45;;;;;;;7.86;100.00;99746.91;5041651;28;20033;-69
2021/12/06 05:44:25;;;;;;;34.72;19.00;;;;;;;7.74;100.00;99729.38;5047329;28;20024;-67
2021/12/06 05:46:51;;;;;;;35.85;20.42;;;;;;;7.99;100.00;99758.50;5022698;28;20055;-70
2021/12/06 05:49:16;;;;;;;36.33;18.95;;;;;;;7.86;100.00;99759.75;5050898;28;20052;-67
2021/12/06 05:51:42;;;;;;;35.50;19.42;;;;;;;7.88;100.00;99770.97;5046309;28;20048;-67
2021/12/06 05:54:07;;;;;;;44.83;27.55;;;;;;;7.73;100.00;99730.19;5049149;28;20450;-69
2021/12/06 05:56:33;;;;;;;36.50;21.38;;;;;;;7.85;100.00;99765.72;5049060;28;20395;-70
2021/12/06 05:58:58;;;;;;;37.97;20.63;;;;;;;7.72;100.00;99751.56;5048668;28;20036;-69
2021/12/06 06:01:29;;;;;;;48.85;27.75;;;;;;;7.74;100.00;99771.34;5050679;28;20025;-70
2021/12/06 06:04:00;;;;;;;160.65;116.65;;;;;;;7.81;100.00;99772.44;5050973;28;20025;-69
2021/12/06 06:06:26;;;;;;;87.75;57.35;;;;;;;7.68;100.00;99731.72;5049852;28;20036;-69
2021/12/06 06:08:53;;;;;;;52.28;34.35;;;;;;;7.56;100.00;99694.50;5050559;28;20017;-69
2021/12/06 06:11:18;;;;;;;49.97;29.30;;;;;;;7.94;100.00;99760.94;5050230;28;20024;-68
2021/12/06 06:13:44;;;;;;;51.38;33.60;;;;;;;7.93;100.00;99775.44;5051061;28;20028;-68
2021/12/06 06:16:09;;;;;;;51.63;36.47;;;;;;;7.92;100.00;99776.31;5033069;28;20024;-68
2021/12/06 06:18:36;;;;;;;56.45;36.67;;;;;;;7.79;100.00;99735.56;5042737;28;20175;-69
2021/12/06 06:21:05;;;;;;;39.92;25.27;;;;;;;8.07;100.00;99768.25;5044094;28;20048;-67
2021/12/06 06:23:30;;;;;;;42.30;25.30;;;;;;;8.18;100.00;99767.75;5041996;28;20041;-68
2021/12/06 06:25:57;;;;;;;41.60;27.65;;;;;;;8.20;100.00;99743.84;5040109;28;20032;-69
2021/12/06 06:28:22;;;;;;;43.10;25.20;;;;;;;8.30;100.00;99755.34;5036468;28;20029;-68
2021/12/06 06:30:48;;;;;;;39.20;23.08;;;;;;;8.34;100.00;99761.47;5039989;28;20399;-69
2021/12/06 06:33:13;;;;;;;41.90;23.98;;;;;;;8.33;100.00;99758.00;5041421;28;20025;-69
2021/12/06 06:35:39;;;;;;;42.65;26.80;;;;;;;8.22;100.00;99749.03;5041328;28;20463;-69
2021/12/06 06:38:06;;;;;;;39.53;25.17;;;;;;;8.00;100.00;99721.69;5039748;28;20043;-70
2021/12/06 06:40:31;;;;;;;55.25;32.75;;;;;;;8.25;100.00;99762.03;5042092;28;20021;-69
2021/12/06 06:42:57;;;;;;;53.90;35.67;;;;;;;8.28;100.00;99756.09;5040276;28;20029;-69
2021/12/06 06:45:23;;;;;;;49.92;32.47;;;;;;;8.19;100.00;99751.53;4988806;28;20036;-69
2021/12/06 06:47:50;;;;;;;51.20;32.00;;;;;;;8.43;100.00;99751.47;5041962;28;20025;-68
2021/12/06 06:50:17;;;;;;;43.47;25.23;;;;;;;8.33;100.00;99718.56;5041551;28;20058;-69
2021/12/06 06:52:43;;;;;;;47.72;28.65;;;;;;;8.34;100.00;99716.03;5041616;28;20523;-69
2021/12/06 06:55:10;;;;;;;40.20;24.08;;;;;;;8.62;100.00;99759.84;5044964;28;20025;-69
2021/12/06 06:57:36;;;;;;;39.63;24.90;;;;;;;8.63;100.00;99749.59;5040370;28;20028;-69
2021/12/06 07:00:04;;;;;;;38.53;22.77;;;;;;;8.45;100.00;99720.66;5041495;28;20060;-69
2021/12/06 07:02:30;;;;;;;37.67;21.47;;;;;;;8.69;100.00;99765.25;5042199;28;20025;-69
2021/12/06 07:04:55;;;;;;;34.75;21.27;;;;;;;8.64;100.00;99765.94;5021937;28;20083;-68
2021/12/06 07:07:21;;;;;;;43.60;24.48;;;;;;;8.63;100.00;99759.88;5041010;28;20029;-70
2021/12/06 07:09:46;;;;;;;41.33;23.42;;;;;;;8.63;100.00;99767.59;5040123;28;20484;-70
2021/12/06 07:12:16;;;;;;;37.05;24.85;;;;;;;8.69;100.00;99769.53;5045540;28;20028;-69
2021/12/06 07:14:43;;;;;;;41.10;24.52;;;;;;;8.54;100.00;99721.00;5043165;28;20040;-69
2021/12/06 07:17:09;;;;;;;40.20;22.67;;;;;;;8.78;100.00;99762.09;5044966;28;20494;-69
2021/12/06 07:19:36;;;;;;;42.75;24.55;;;;;;;8.78;100.00;99754.38;5037653;28;20063;-69
2021/12/06 07:22:01;;;;;;;41.70;25.90;;;;;;;8.92;100.00;99761.69;5040252;28;20029;-70
2021/12/06 07:24:27;;;;;;;35.90;22.42;;;;;;;8.89;100.00;99716.13;5045588;28;20047;-69
2021/12/06 07:26:53;;;;;;;36.58;23.45;;;;;;;9.16;100.00;99752.16;5045723;28;20052;-69
2021/12/06 07:29:19;;;;;;;34.88;21.92;;;;;;;9.18;100.00;99747.94;5048321;28;20076;-69
2021/12/06 07:31:44;;;;;;;38.15;21.75;;;;;;;9.36;100.00;99754.47;5045307;28;20028;-69
2021/12/06 07:34:10;;;;;;;36.10;21.15;;;;;;;9.34;100.00;99738.94;5043878;28;20410;-70
2021/12/06 07:36:35;;;;;;;40.78;21.15;;;;;;;9.46;100.00;99759.06;5043228;28;20049;-69
2021/12/06 07:39:01;;;;;;;36.28;20.98;;;;;;;9.62;100.00;99744.03;5045327;28;20466;-69
2021/12/06 07:41:28;;;;;;;36.53;22.35;;;;;;;9.69;100.00;99735.66;5043973;28;20047;-69
2021/12/06 07:43:56;;;;;;;37.10;21.55;;;;;;;9.42;100.00;99676.47;5044519;28;20061;-69
2021/12/06 07:46:22;;;;;;;33.60;20.77;;;;;;;9.84;100.00;99745.53;5042871;28;20057;-69
2021/12/06 07:48:52;;;;;;;33.08;19.20;;;;;;;9.95;100.00;99740.69;5044238;28;20068;-70
2021/12/06 07:51:22;;;;;;;34.83;20.70;;;;;;;9.91;100.00;99706.22;5044546;28;20057;-69
2021/12/06 07:53:48;;;;;;;25.50;15.80;;;;;;;10.18;100.00;99744.75;5046422;28;20033;-70
2021/12/06 07:56:14;;;;;;;31.98;16.42;;;;;;;10.30;100.00;99731.31;5038089;28;20495;-69
2021/12/06 07:58:39;;;;;;;25.92;13.75;;;;;;;10.35;100.00;99732.31;5051947;28;20063;-69
2021/12/06 08:01:05;;;;;;;27.77;14.10;;;;;;;10.31;100.00;99714.13;5054192;28;20047;-69
2021/12/06 08:03:31;;;;;;;29.60;14.95;;;;;;;10.45;100.00;99723.13;5051866;28;20025;-70
2021/12/06 08:05:58;;;;;;;25.80;13.20;;;;;;;10.59;100.00;99741.56;5039059;28;20030;-68
2021/12/06 08:11:45;;;;;;;18.67;11.73;;;;;;;10.64;100.00;99742.53;5036799;28;20470;-69
2021/12/06 08:14:10;;;;;;;25.60;15.27;;;;;;;10.62;100.00;99741.63;5053829;28;20064;-69
2021/12/06 08:16:40;;;;;;;24.67;13.15;;;;;;;10.60;100.00;99743.28;5049794;28;20406;-69
2021/12/06 08:19:07;;;;;;;20.15;11.25;;;;;;;10.43;100.00;99705.84;5041979;28;20122;-69
2021/12/06 08:21:33;;;;;;;25.05;12.68;;;;;;;10.47;100.00;99713.72;5042424;28;20033;-69
2021/12/06 08:24:00;;;;;;;20.00;12.45;;;;;;;10.72;100.00;99736.69;5042352;28;20032;-69
2021/12/06 08:26:33;;;;;;;21.38;12.88;;;;;;;10.78;100.00;99748.03;5050468;28;20098;-70
2021/12/06 08:29:02;;;;;;;28.77;17.52;;;;;;;10.83;100.00;99745.56;5052472;28;20033;-69
2021/12/06 08:31:29;;;;;;;28.17;17.70;;;;;;;10.79;100.00;99728.22;5050344;28;20430;-69
2021/12/06 08:33:55;;;;;;;32.65;17.35;;;;;;;10.91;100.00;99744.03;5052668;28;20039;-70
2021/12/06 08:36:22;;;;;;;22.63;14.57;;;;;;;10.99;100.00;99736.44;5052613;28;20084;-70
2021/12/06 08:38:48;;;;;;;25.55;12.98;;;;;;;11.06;100.00;99738.34;5052097;28;20087;-70
2021/12/06 08:41:18;;;;;;;23.02;11.65;;;;;;;11.11;100.00;99731.56;5052383;28;20068;-70
2021/12/06 08:43:45;;;;;;;24.15;10.93;;;;;;;10.84;100.00;99670.72;5052744;28;20556;-70
2021/12/06 08:46:23;;;;;;;22.48;10.40;;;;;;;11.09;100.00;99702.28;5052550;28;20033;-69
2021/12/06 08:48:50;;;;;;;20.35;9.75;;;;;;;11.40;100.00;99728.78;5050210;28;20064;-69
2021/12/06 08:51:30;;;;;;;22.23;9.45;;;;;;;11.54;100.00;99716.16;5052648;28;20021;-69
2021/12/06 08:53:58;;;;;;;21.40;8.90;;;;;;;11.54;100.00;99710.09;5050817;28;20431;-69
2021/12/06 08:56:24;;;;;;;20.05;9.98;;;;;;;11.46;100.00;99684.09;5052301;28;20028;-73
2021/12/06 08:58:50;;;;;;;19.80;9.48;;;;;;;11.75;100.00;99710.53;5050759;28;20037;-72
2021/12/06 09:01:16;;;;;;;15.75;8.90;;;;;;;11.81;100.00;99709.78;5052115;28;20582;-70
2021/12/06 09:03:42;;;;;;;17.70;8.68;;;;;;;11.76;100.00;99706.22;5034680;28;20033;-70
2021/12/06 09:06:10;;;;;;;28.45;12.82;;;;;;;11.71;100.00;99702.69;5052084;28;20013;-71
2021/12/06 09:08:36;;;;;;;21.10;9.77;;;;;;;11.70;100.00;99695.75;5052619;28;20025;-70
2021/12/06 09:11:03;;;;;;;18.95;8.43;;;;;;;11.55;100.00;99671.38;5050180;28;20040;-71
2021/12/06 09:13:30;;;;;;;18.58;8.65;;;;;;;11.58;100.00;99680.91;5047312;28;20064;-71
2021/12/06 09:15:59;;;;;;;13.63;7.43;;;;;;;11.41;100.00;99652.13;5047226;28;20033;-74
2021/12/06 09:18:29;;;;;;;16.35;7.65;;;;;;;11.57;100.00;99672.25;5052142;28;20039;-74
2021/12/06 09:20:56;;;;;;;13.00;6.47;;;;;;;11.47;100.00;99632.41;5033428;28;20553;-74
2021/12/06 09:23:23;;;;;;;16.40;7.50;;;;;;;11.66;100.00;99663.81;5051645;28;20032;-74
2021/12/06 09:25:49;;;;;;;19.20;6.80;;;;;;;11.66;100.00;99648.28;5051808;28;20041;-75
2021/12/06 09:28:16;;;;;;;13.68;7.00;;;;;;;11.50;100.00;99613.50;5034620;28;20037;-73
2021/12/06 09:30:43;;;;;;;12.02;6.72;;;;;;;11.62;100.00;99625.81;5051722;28;20033;-74
2021/12/06 09:33:11;;;;;;;18.08;7.90;;;;;;;11.71;100.00;99650.97;5051164;28;20116;-71
2021/12/06 09:35:41;;;;;;;17.75;7.22;;;;;;;11.73;100.00;99645.00;5051646;28;20021;-72
2021/12/06 09:38:08;;;;;;;19.45;8.57;;;;;;;11.80;100.00;99639.09;4983158;28;20103;-73
2021/12/06 09:40:37;;;;;;;11.70;4.30;;;;;;;12.09;100.00;99654.28;5051952;28;20135;-73
2021/12/06 09:43:05;;;;;;;11.02;3.97;;;;;;;12.21;100.00;99639.81;5051819;28;20473;-73
2021/12/06 09:45:34;;;;;;;14.38;4.75;;;;;;;12.34;100.00;99635.75;5051598;28;20458;-72
2021/12/06 09:48:02;;;;;;;17.52;4.07;;;;;;;12.52;100.00;99655.84;5049894;28;20025;-73
2021/12/06 09:50:35;;;;;;;10.30;3.30;;;;;;;12.53;100.00;99642.94;5031410;28;20072;-73
2021/12/06 09:53:05;;;;;;;10.20;4.22;;;;;;;12.61;100.00;99650.81;5041689;28;20032;-71
2021/12/06 09:55:32;;;;;;;16.35;5.05;;;;;;;12.71;100.00;99654.41;5042318;28;20036;-72
2021/12/06 09:57:58;;;;;;;21.83;5.18;;;;;;;12.71;100.00;99644.06;5045309;28;20032;-74
2021/12/06 10:00:27;;;;;;;11.93;4.15;;;;;;;12.52;100.00;99614.44;4998030;28;20041;-72
2021/12/06 10:02:53;;;;;;;13.00;3.03;;;;;;;12.61;100.00;99618.03;4998187;28;20029;-72
2021/12/06 10:05:20;;;;;;;9.85;3.88;;;;;;;12.67;100.00;99619.81;5049990;28;20299;-72
2021/12/06 10:07:46;;;;;;;16.90;5.30;;;;;;;12.74;100.00;99639.78;4982832;28;20060;-72
2021/12/06 10:10:14;;;;;;;23.20;6.85;;;;;;;12.82;100.00;99616.59;5050601;28;20017;-72
2021/12/06 10:12:42;;;;;;;18.30;6.43;;;;;;;12.79;100.00;99614.81;5050619;28;20102;-72
2021/12/06 10:15:09;;;;;;;15.38;4.38;;;;;;;12.83;100.00;99614.88;5050646;28;20466;-72
2021/12/06 10:17:34;;;;;;;20.02;4.35;;;;;;;12.82;100.00;99616.59;5047699;28;20115;-72
2021/12/06 10:20:02;;;;;;;11.95;3.30;;;;;;;12.75;100.00;99610.47;5050506;28;20067;-72
2021/12/06 10:22:28;;;;;;;9.18;2.60;;;;;;;12.72;100.00;99617.31;5015484;28;20028;-72
2021/12/06 10:24:58;;;;;;;9.52;2.60;;;;;;;12.51;100.00;99591.97;5048933;28;20106;-72
2021/12/06 10:27:24;;;;;;;11.65;2.47;;;;;;;12.65;100.00;99618.97;5050129;28;20040;-72
2021/12/06 10:29:54;;;;;;;7.20;1.90;;;;;;;12.48;100.00;99591.94;5049945;28;20422;-72
2021/12/06 10:32:25;;;;;;;9.65;2.25;;;;;;;12.56;100.00;99604.16;5049956;28;20021;-72
2021/12/06 10:34:55;;;;;;;6.85;2.10;;;;;;;12.45;100.00;99582.41;5044006;28;20029;-72
2021/12/06 10:37:46;;;;;;;7.55;2.00;;;;;;;12.60;100.00;99587.81;5048412;28;20055;-72
2021/12/06 10:40:27;;;;;;;6.43;2.15;;;;;;;12.63;100.00;99610.28;5048461;28;20075;-72
2021/12/06 10:42:55;;;;;;;11.48;2.50;;;;;;;12.69;100.00;99587.06;5050221;28;20017;-72
2021/12/06 10:45:35;;;;;;;10.98;2.50;;;;;;;12.81;100.00;99594.16;5051602;28;20422;-72
2021/12/06 10:48:08;;;;;;;14.85;3.00;;;;;;;12.75;100.00;99574.22;5053926;28;20025;-70
2021/12/06 10:50:40;;;;;;;9.43;2.30;;;;;;;12.99;100.00;99580.56;5054354;28;20071;-72
2021/12/06 10:53:06;;;;;;;10.88;2.65;;;;;;;13.07;100.00;99568.56;5053231;28;20036;-70
2021/12/06 10:55:33;;;;;;;9.23;2.60;;;;;;;13.11;100.00;99566.91;5053805;28;20036;-74
2021/12/06 10:58:05;;;;;;;9.88;2.30;;;;;;;13.15;100.00;99568.66;5052754;28;20033;-72
2021/12/06 11:00:43;;;;;;;14.18;2.97;;;;;;;13.18;100.00;99566.09;5053570;28;20537;-72
2021/12/06 11:03:26;;;;;;;9.35;2.80;;;;;;;13.25;100.00;99564.47;5055117;28;20052;-69
2021/12/06 11:06:01;;;;;;;8.52;2.20;;;;;;;13.26;100.00;99558.44;5054889;28;20017;-73
2021/12/06 11:08:27;;;;;;;7.78;2.15;;;;;;;13.11;100.00;99525.44;5054857;28;20051;-70
2021/12/06 11:11:06;;;;;;;11.75;2.85;;;;;;;13.30;100.00;99546.38;5054378;28;20025;-73
2021/12/06 11:13:38;;;;;;;10.05;2.75;;;;;;;13.37;100.00;99549.09;5054726;28;20052;-72
2021/12/06 11:16:14;;;;;;;10.30;2.83;;;;;;;13.39;100.00;99541.31;5053909;28;20104;-73
2021/12/06 11:18:47;;;;;;;9.57;3.20;;;;;;;13.37;100.00;99554.25;5052384;28;20431;-71
2021/12/06 11:21:21;;;;;;;10.60;2.90;;;;;;;13.36;100.00;99546.44;5053599;28;20033;-70
2021/12/06 11:24:07;;;;;;;10.43;2.85;;;;;;;13.35;100.00;99544.69;5054372;28;20044;-76
2021/12/06 11:26:35;;;;;;;10.32;2.60;;;;;;;13.27;100.00;99534.22;5054119;28;20546;-72
2021/12/06 11:29:09;;;;;;;9.60;2.30;;;;;;;13.38;100.00;99547.34;5054760;28;20025;-69
2021/12/06 11:31:36;;;;;;;5.57;1.70;;;;;;;13.62;100.00;99543.25;5054493;28;20032;-70
2021/12/06 11:34:05;;;;;;;8.68;2.50;;;;;;;13.48;100.00;99518.06;5054149;28;20025;-71
2021/12/06 11:36:31;;;;;;;10.93;2.28;;;;;;;13.69;100.00;99540.72;5054250;28;20029;-69
2021/12/06 11:39:14;;;;;;;9.32;1.92;;;;;;;13.64;100.00;99531.19;5053701;28;20494;-72
2021/12/06 11:41:45;;;;;;;12.48;3.13;;;;;;;13.46;100.00;99501.63;5054300;28;20049;-69